Time,TemperatureF,DewpointF,PressureIn,WindDirection,WindDirectionDegrees,WindSpeedMPH,WindSpeedGustMPH,Humidity,HourlyPrecipIn,Conditions,Clouds,dailyrainin,SoftwareType,DateUTC
2013-09-29 00:05:00,41.7,27.0,30.13,NNE,28,1.0,-999.0,57,-99.99,,,0.00,weatherlink.com 1.10,2013-09-29 07:05:00,
2013-09-29 00:20:00,41.5,28.0,30.12,NNE,28,0.0,-999.0,58,-99.99,,,0.00,weatherlink.com 1.10,2013-09-29 07:20:00,
2013-09-29 00:35:00,40.9,27.0,30.13,NNE,28,0.0,-999.0,59,-99.99,,,0.00,weatherlink.com 1.10,2013-09-29 07:35:00,
2013-09-29 00:50:00,39.9,28.0,30.13,NNE,28,0.0,-999.0,63,-99.99,,,0.00,weatherlink.com 1.10,2013-09-29 07:50:00,
2013-09-29 01:05:00,39.0,28.0,30.13,NNE,28,0.0,-999.0,66,-99.99,,,0.00,weatherlink.com 1.10,2013-09-29 08:05:00,
2013-09-29 01:20:00,38.4,27.0,30.13,NNE,28,0.0,-999.0,64,-99.99,,,0.00,weatherlink.com 1.10,2013-09-29 08:20:00,
2013-09-29 01:35:00,38.2,26.0,30.13,NNE,28,0.0,-999.0,63,-99.99,,,0.00,weatherlink.com 1.10,2013-09-29 08:35:00,
2013-09-29 01:50:00,38.4,28.0,30.13,NNE,28,0.0,-999.0,66,-99.99,,,0.00,weatherlink.com 1.10,2013-09-29 08:50:00,
2013-09-29 02:05:00,37.9,28.0,30.13,NNE,28,0.0,-999.0,67,-99.99,,,0.00,weatherlink.com 1.10,2013-09-29 09:05:00,
2013-09-29 02:20:00,37.3,28.0,30.12,NNE,28,0.0,-999.0,68,-99.99,,,0.00,weatherlink.com 1.10,2013-09-29 09:20:00,
2013-09-29 02:35:00,36.8,28.0,30.12,NNE,28,0.0,-999.0,70,-99.99,,,0.00,weatherlink.com 1.10,2013-09-29 09:35:00,
2013-09-29 02:50:00,36.5,28.0,30.12,NNE,28,0.0,-999.0,70,-99.99,,,0.00,weatherlink.com 1.10,2013-09-29 09:50:00,
2013-09-29 03:05:00,36.4,28.0,30.12,NNE,28,0.0,-999.0,71,-99.99,,,0.00,weatherlink.com 1.10,2013-09-29 10:05:00,
2013-09-29 03:20:00,36.4,27.0,30.12,NNE,28,0.0,-999.0,70,-99.99,,,0.00,weatherlink.com 1.10,2013-09-29 10:20:00,
2013-09-29 03:35:00,36.1,28.0,30.12,NNE,28,0.0,-999.0,71,-99.99,,,0.00,weatherlink.com 1.10,2013-09-29 10:35:00,
2013-09-29 03:50:00,35.9,27.0,30.12,NNE,28,0.0,-999.0,71,-99.99,,,0.00,weatherlink.com 1.10,2013-09-29 10:50:00,
2013-09-29 04:05:00,35.5,27.0,30.12,NNE,28,0.0,-999.0,72,-99.99,,,0.00,weatherlink.com 1.10,2013-09-29 11:05:00,
2013-09-29 04:20:00,35.2,27.0,30.12,NNE,28,0.0,-999.0,73,-99.99,,,0.00,weatherlink.com 1.10,2013-09-29 11:20:00,
2013-09-29 04:35:00,35.1,27.0,30.12,NNE,28,0.0,-999.0,73,-99.99,,,0.00,weatherlink.com 1.10,2013-09-29 11:35:00,
2013-09-29 04:50:00,35.1,27.0,30.13,NNE,28,0.0,-999.0,73,-99.99,,,0.00,weatherlink.com 1.10,2013-09-29 11:50:00,
2013-09-29 05:05:00,35.0,27.0,30.14,NNE,28,0.0,-999.0,73,-99.99,,,0.00,weatherlink.com 1.10,2013-09-29 12:05:00,
2013-09-29 05:20:00,34.8,27.0,30.14,NNE,28,0.0,-999.0,73,-99.99,,,0.00,weatherlink.com 1.10,2013-09-29 12:20:00,
2013-09-29 05:36:00,34.6,27.0,30.14,NNE,28,0.0,-999.0,75,-99.99,,,0.00,weatherlink.com 1.10,2013-09-29 12:36:00,
2013-09-29 05:51:00,34.2,28.0,30.15,NNE,28,1.0,-999.0,77,-99.99,,,0.00,weatherlink.com 1.10,2013-09-29 12:51:00,
2013-09-29 06:06:00,33.8,27.0,30.15,NNE,28,0.0,-999.0,77,-99.99,,,0.00,weatherlink.com 1.10,2013-09-29 13:06:00,
2013-09-29 06:21:00,33.6,28.0,30.15,NNE,28,0.0,-999.0,79,-99.99,,,0.00,weatherlink.com 1.10,2013-09-29 13:21:00,
2013-09-29 06:36:00,33.5,27.0,30.15,NNE,28,0.0,-999.0,78,-99.99,,,0.00,weatherlink.com 1.10,2013-09-29 13:36:00,
2013-09-29 06:51:00,33.7,28.0,30.16,NNE,28,0.0,-999.0,78,-99.99,,,0.00,weatherlink.com 1.10,2013-09-29 13:51:00,
2013-09-29 07:06:00,34.1,28.0,30.16,NNE,28,0.0,-999.0,78,-99.99,,,0.00,weatherlink.com 1.10,2013-09-29 14:06:00,
2013-09-29 07:21:00,35.6,29.0,30.16,NNE,28,0.0,-999.0,77,-99.99,,,0.00,weatherlink.com 1.10,2013-09-29 14:21:00,
2013-09-29 07:36:00,38.4,30.0,30.16,NNE,28,0.0,-999.0,71,-99.99,,,0.00,weatherlink.com 1.10,2013-09-29 14:36:00,
2013-09-29 07:51:00,42.0,32.0,30.16,NNE,28,0.0,-999.0,67,-99.99,,,0.00,weatherlink.com 1.10,2013-09-29 14:51:00,
2013-09-29 08:06:00,45.1,33.0,30.16,NNE,28,0.0,-999.0,63,-99.99,,,0.00,weatherlink.com 1.10,2013-09-29 15:06:00,
2013-09-29 08:21:00,47.3,37.0,30.16,NNE,28,0.0,-999.0,67,-99.99,,,0.00,weatherlink.com 1.10,2013-09-29 15:21:00,
2013-09-29 08:36:00,50.8,35.0,30.16,NNE,28,0.0,-999.0,56,-99.99,,,0.00,weatherlink.com 1.10,2013-09-29 15:36:00,
2013-09-29 08:51:00,54.7,31.0,30.17,NNE,28,1.0,-999.0,41,-99.99,,,0.00,weatherlink.com 1.10,2013-09-29 15:51:00,
2013-09-29 09:06:00,57.6,34.0,30.16,NNE,28,0.0,-999.0,41,-99.99,,,0.00,weatherlink.com 1.10,2013-09-29 16:06:00,
2013-09-29 09:21:00,59.4,35.0,30.16,South,187,0.0,-999.0,40,-99.99,,,0.00,weatherlink.com 1.10,2013-09-29 16:21:00,
2013-09-29 09:36:00,60.7,38.0,30.16,West,280,4.0,-999.0,43,-99.99,,,0.00,weatherlink.com 1.10,2013-09-29 16:36:00,
2013-09-29 09:51:00,61.2,38.0,30.16,WSW,256,3.0,-999.0,42,-99.99,,,0.00,weatherlink.com 1.10,2013-09-29 16:51:00,
2013-09-29 10:06:00,61.4,39.0,30.16,WSW,252,2.0,-999.0,43,-99.99,,,0.00,weatherlink.com 1.10,2013-09-29 17:06:00,
2013-09-29 10:21:00,61.5,39.0,30.16,WSW,237,0.0,-999.0,43,-99.99,,,0.00,weatherlink.com 1.10,2013-09-29 17:21:00,
2013-09-29 10:36:00,61.8,39.0,30.15,SW,229,3.0,-999.0,43,-99.99,,,0.00,weatherlink.com 1.10,2013-09-29 17:36:00,
2013-09-29 10:51:00,62.3,38.0,30.15,SW,227,3.0,-999.0,41,-99.99,,,0.00,weatherlink.com 1.10,2013-09-29 17:51:00,
2013-09-29 11:06:00,62.5,38.0,30.14,SW,228,1.0,-999.0,41,-99.99,,,0.00,weatherlink.com 1.10,2013-09-29 18:06:00,
2013-09-29 11:21:00,62.9,38.0,30.14,West,263,1.0,-999.0,40,-99.99,,,0.00,weatherlink.com 1.10,2013-09-29 18:21:00,
2013-09-29 11:36:00,63.4,39.0,30.13,WSW,254,2.0,-999.0,40,-99.99,,,0.00,weatherlink.com 1.10,2013-09-29 18:36:00,
2013-09-29 11:51:00,64.0,38.0,30.12,SW,227,4.0,-999.0,39,-99.99,,,0.00,weatherlink.com 1.10,2013-09-29 18:51:00,
2013-09-29 12:06:00,64.9,39.0,30.11,SW,221,1.0,-999.0,38,-99.99,,,0.00,weatherlink.com 1.10,2013-09-29 19:06:00,
2013-09-29 12:22:00,65.7,39.0,30.11,WNW,298,2.0,-999.0,37,-99.99,,,0.00,weatherlink.com 1.10,2013-09-29 19:22:00,
2013-09-29 12:37:00,65.5,37.0,30.11,South,189,4.0,-999.0,35,-99.99,,,0.00,weatherlink.com 1.10,2013-09-29 19:37:00,
2013-09-29 12:52:00,66.0,37.0,30.09,SW,233,1.0,-999.0,35,-99.99,,,0.00,weatherlink.com 1.10,2013-09-29 19:52:00,
2013-09-29 13:07:00,67.1,38.0,30.09,SW,227,4.0,-999.0,34,-99.99,,,0.00,weatherlink.com 1.10,2013-09-29 20:07:00,
2013-09-29 13:22:00,67.5,37.0,30.08,SW,234,3.0,-999.0,33,-99.99,,,0.00,weatherlink.com 1.10,2013-09-29 20:22:00,
2013-09-29 13:37:00,67.7,38.0,30.07,NW,308,0.0,-999.0,34,-99.99,,,0.00,weatherlink.com 1.10,2013-09-29 20:37:00,
2013-09-29 13:52:00,68.3,36.0,30.07,West,263,3.0,-999.0,31,-99.99,,,0.00,weatherlink.com 1.10,2013-09-29 20:52:00,
2013-09-29 14:07:00,68.5,37.0,30.07,SW,234,1.0,-999.0,31,-99.99,,,0.00,weatherlink.com 1.10,2013-09-29 21:07:00,
2013-09-29 14:22:00,69.5,37.0,30.07,SSW,208,2.0,-999.0,31,-99.99,,,0.00,weatherlink.com 1.10,2013-09-29 21:22:00,
2013-09-29 14:37:00,69.4,37.0,30.07,West,265,4.0,-999.0,31,-99.99,,,0.00,weatherlink.com 1.10,2013-09-29 21:37:00,
2013-09-29 14:52:00,68.8,38.0,30.06,SW,233,1.0,-999.0,32,-99.99,,,0.00,weatherlink.com 1.10,2013-09-29 21:52:00,
2013-09-29 15:07:00,69.5,37.0,30.06,SW,236,2.0,-999.0,31,-99.99,,,0.00,weatherlink.com 1.10,2013-09-29 22:07:00,
2013-09-29 15:22:00,69.9,38.0,30.06,West,264,0.0,-999.0,31,-99.99,,,0.00,weatherlink.com 1.10,2013-09-29 22:22:00,
2013-09-29 15:37:00,70.0,39.0,30.05,SW,229,2.0,-999.0,32,-99.99,,,0.00,weatherlink.com 1.10,2013-09-29 22:37:00,
2013-09-29 15:52:00,69.7,39.0,30.05,SW,232,3.0,-999.0,33,-99.99,,,0.00,weatherlink.com 1.10,2013-09-29 22:52:00,
2013-09-29 16:07:00,68.3,38.0,30.05,WSW,240,3.0,-999.0,33,-99.99,,,0.00,weatherlink.com 1.10,2013-09-29 23:07:00,
2013-09-29 16:22:00,67.8,38.0,30.05,WSW,239,4.0,-999.0,34,-99.99,,,0.00,weatherlink.com 1.10,2013-09-29 23:22:00,
2013-09-29 16:37:00,67.6,37.0,30.04,West,261,0.0,-999.0,33,-99.99,,,0.00,weatherlink.com 1.10,2013-09-29 23:37:00,
2013-09-29 16:52:00,67.8,38.0,30.04,SW,221,0.0,-999.0,34,-99.99,,,0.00,weatherlink.com 1.10,2013-09-29 23:52:00,
2013-09-29 17:07:00,67.4,39.0,30.04,SW,227,0.0,-999.0,35,-99.99,,,0.00,weatherlink.com 1.10,2013-09-30 00:07:00,
2013-09-29 17:22:00,67.0,38.0,30.04,SW,220,1.0,-999.0,35,-99.99,,,0.00,weatherlink.com 1.10,2013-09-30 00:22:00,
2013-09-29 17:37:00,66.7,39.0,30.04,SSW,209,0.0,-999.0,37,-99.99,,,0.00,weatherlink.com 1.10,2013-09-30 00:37:00,
2013-09-29 17:52:00,66.2,39.0,30.04,SW,221,1.0,-999.0,37,-99.99,,,0.00,weatherlink.com 1.10,2013-09-30 00:52:00,
2013-09-29 18:07:00,64.6,40.0,30.04,SW,221,0.0,-999.0,41,-99.99,,,0.00,weatherlink.com 1.10,2013-09-30 01:07:00,
2013-09-29 18:22:00,62.5,41.0,30.03,SW,221,0.0,-999.0,45,-99.99,,,0.00,weatherlink.com 1.10,2013-09-30 01:22:00,
2013-09-29 18:37:00,59.2,41.0,30.04,SW,221,0.0,-999.0,51,-99.99,,,0.00,weatherlink.com 1.10,2013-09-30 01:37:00,
2013-09-29 18:52:00,56.9,41.0,30.04,SW,221,0.0,-999.0,56,-99.99,,,0.00,weatherlink.com 1.10,2013-09-30 01:52:00,
2013-09-29 19:07:00,54.6,41.0,30.05,SW,221,1.0,-999.0,60,-99.99,,,0.00,weatherlink.com 1.10,2013-09-30 02:07:00,
2013-09-29 19:22:00,53.0,41.0,30.05,SW,221,0.0,-999.0,63,-99.99,,,0.00,weatherlink.com 1.10,2013-09-30 02:22:00,
2013-09-29 19:37:00,51.7,40.0,30.05,SW,221,0.0,-999.0,65,-99.99,,,0.00,weatherlink.com 1.10,2013-09-30 02:37:00,
2013-09-29 19:52:00,50.8,40.0,30.05,SW,221,0.0,-999.0,66,-99.99,,,0.00,weatherlink.com 1.10,2013-09-30 02:52:00,
2013-09-29 20:07:00,49.7,39.0,30.06,SW,221,0.0,-999.0,67,-99.99,,,0.00,weatherlink.com 1.10,2013-09-30 03:07:00,
2013-09-29 20:22:00,48.7,39.0,30.06,SW,221,0.0,-999.0,69,-99.99,,,0.00,weatherlink.com 1.10,2013-09-30 03:22:00,
2013-09-29 20:37:00,47.6,39.0,30.06,SW,221,0.0,-999.0,71,-99.99,,,0.00,weatherlink.com 1.10,2013-09-30 03:37:00,
2013-09-29 20:52:00,46.9,38.0,30.06,SW,221,0.0,-999.0,72,-99.99,,,0.00,weatherlink.com 1.10,2013-09-30 03:52:00,
2013-09-29 21:07:00,46.3,38.0,30.06,SW,221,1.0,-999.0,72,-99.99,,,0.00,weatherlink.com 1.10,2013-09-30 04:07:00,
2013-09-29 21:22:00,45.6,37.0,30.07,SW,221,0.0,-999.0,73,-99.99,,,0.00,weatherlink.com 1.10,2013-09-30 04:22:00,
2013-09-29 21:37:00,45.0,37.0,30.07,SW,221,0.0,-999.0,74,-99.99,,,0.00,weatherlink.com 1.10,2013-09-30 04:37:00,
2013-09-29 21:52:00,44.4,37.0,30.07,SW,221,0.0,-999.0,75,-99.99,,,0.00,weatherlink.com 1.10,2013-09-30 04:52:00,
2013-09-29 22:07:00,43.9,36.0,30.07,SW,221,0.0,-999.0,75,-99.99,,,0.00,weatherlink.com 1.10,2013-09-30 05:07:00,
2013-09-29 22:22:00,43.2,36.0,30.06,SW,221,0.0,-999.0,76,-99.99,,,0.00,weatherlink.com 1.10,2013-09-30 05:22:00,
2013-09-29 22:37:00,42.5,36.0,30.05,SW,221,0.0,-999.0,77,-99.99,,,0.00,weatherlink.com 1.10,2013-09-30 05:37:00,
2013-09-29 22:52:00,41.9,36.0,30.05,SW,221,0.0,-999.0,78,-99.99,,,0.00,weatherlink.com 1.10,2013-09-30 05:52:00,
2013-09-29 23:07:00,41.5,35.0,30.05,SW,221,0.0,-999.0,79,-99.99,,,0.00,weatherlink.com 1.10,2013-09-30 06:07:00,
2013-09-29 23:22:00,41.1,35.0,30.05,SW,221,1.0,-999.0,79,-99.99,,,0.00,weatherlink.com 1.10,2013-09-30 06:22:00,
2013-09-29 23:37:00,40.9,35.0,30.06,SW,221,0.0,-999.0,79,-99.99,,,0.00,weatherlink.com 1.10,2013-09-30 06:37:00,
2013-09-29 23:52:00,40.9,35.0,30.06,SW,221,0.0,-999.0,79,-99.99,,,0.00,weatherlink.com 1.10,2013-09-30 06:52:00,